Portada
METAR-TAF:

METAR-TAF

Aeroports :

Aeroport de Gran Canària

Gran Canària, Espanya

latitud: 27-56N, longitud: 015-23W, altitud: 23 m

Observació

L'informe es va fer fa 18 minuts, a les 11:00 UTC
Vent 12 kt del Nord, variant entre Oest/Nord-Oest i Nord/Nord-Est
Temperatura 18°C
Humitat 52%
Pressió 1017 hPa
Visibilitat 10 km o més
Escasses núvols a una alçada de 4500 ft
Cel ennuvolat a una alçada de 6000 ft

METAR: GCLP 211100Z 35012KT 300V020 9999 FEW045 BKN060 18/08 Q1017 NOSIG

Hora: 11:18 (11:18 UTC)

Pronòstic

L'informe es va fer fa 3 hores i 18 minuts, a les 08:00 UTC
Pronòstic vàlid del 21 a les 09 UTC al 22 a les 09 UTC
Vent 13 kt del Nord
Visibilitat 10 km o més
Cel ennuvolat a una alçada de 4500 ft

TAF: GCLP 210800Z 2109/2209 35013KT 9999 BKN045 TX20/2114Z TN14/2206Z

Observacions i pronòstics meteorològics de més de 4000 aeroports (METAR i TAF).

Les estacions disponibles són els punts grocs i vermells al mapa.

Posi el ratolí al punt desitjat per veure el nom de l'estació.

Feu clic per veure les observacions i els pronòstics meteorològics.

Per canviar el mapa: feu clic els botons verds amb una creu de color negre per apropar; al botó verd amb un guió per allunyar la imatge; o en les fletxes verdes per a mapes adjacents.


METAR-TAF: